sensor_id;sensor_type;location;lat;lon;timestamp;pressure;altitude;pressure_sealevel;temperature;humidity
7200;BME280;3641;49.082;8.200;2023-01-05T00:02:14;100823.38;;;9.01;100.00
7200;BME280;3641;49.082;8.200;2023-01-05T00:04:40;100825.44;;;9.07;100.00
7200;BME280;3641;49.082;8.200;2023-01-05T00:07:07;100819.69;;;9.10;100.00
7200;BME280;3641;49.082;8.200;2023-01-05T00:09:34;100819.31;;;9.05;100.00
7200;BME280;3641;49.082;8.200;2023-01-05T00:12:03;100814.22;;;9.10;100.00
7200;BME280;3641;49.082;8.200;2023-01-05T00:14:47;100806.38;;;9.07;100.00
7200;BME280;3641;49.082;8.200;2023-01-05T00:17:45;100824.81;;;9.13;100.00
7200;BME280;3641;49.082;8.200;2023-01-05T00:20:29;100809.63;;;9.11;100.00
7200;BME280;3641;49.082;8.200;2023-01-05T00:23:13;100811.34;;;9.12;100.00
7200;BME280;3641;49.082;8.200;2023-01-05T00:25:41;100805.56;;;9.15;100.00
7200;BME280;3641;49.082;8.200;2023-01-05T00:28:08;100794.69;;;9.15;100.00
7200;BME280;3641;49.082;8.200;2023-01-05T00:30:38;100789.41;;;9.13;100.00
7200;BME280;3641;49.082;8.200;2023-01-05T00:33:06;100778.34;;;9.15;100.00
7200;BME280;3641;49.082;8.200;2023-01-05T00:35:33;100789.41;;;9.21;100.00
7200;BME280;3641;49.082;8.200;2023-01-05T00:37:59;100787.22;;;9.25;100.00
7200;BME280;3641;49.082;8.200;2023-01-05T00:40:26;100783.59;;;9.08;100.00
7200;BME280;3641;49.082;8.200;2023-01-05T00:42:54;100771.66;;;9.09;100.00
7200;BME280;3641;49.082;8.200;2023-01-05T00:45:20;100764.38;;;9.18;100.00
7200;BME280;3641;49.082;8.200;2023-01-05T00:47:47;100780.03;;;9.16;100.00
7200;BME280;3641;49.082;8.200;2023-01-05T00:50:15;100785.31;;;9.17;100.00
7200;BME280;3641;49.082;8.200;2023-01-05T00:52:43;100792.63;;;9.17;100.00
7200;BME280;3641;49.082;8.200;2023-01-05T00:55:10;100787.03;;;9.18;100.00
7200;BME280;3641;49.082;8.200;2023-01-05T00:57:36;100765.22;;;9.18;100.00
7200;BME280;3641;49.082;8.200;2023-01-05T01:00:07;100782.97;;;9.22;100.00
7200;BME280;3641;49.082;8.200;2023-01-05T01:02:34;100781.56;;;9.18;100.00
7200;BME280;3641;49.082;8.200;2023-01-05T01:05:00;100772.56;;;9.18;100.00
7200;BME280;3641;49.082;8.200;2023-01-05T01:07:27;100780.91;;;9.24;100.00
7200;BME280;3641;49.082;8.200;2023-01-05T01:09:53;100780.09;;;9.40;100.00
7200;BME280;3641;49.082;8.200;2023-01-05T01:12:20;100777.72;;;9.37;100.00
7200;BME280;3641;49.082;8.200;2023-01-05T01:14:47;100781.59;;;9.35;100.00
7200;BME280;3641;49.082;8.200;2023-01-05T01:17:15;100769.88;;;9.34;100.00
7200;BME280;3641;49.082;8.200;2023-01-05T01:19:42;100774.31;;;9.35;100.00
7200;BME280;3641;49.082;8.200;2023-01-05T01:22:10;100771.03;;;9.32;100.00
7200;BME280;3641;49.082;8.200;2023-01-05T01:24:37;100760.31;;;9.30;100.00
7200;BME280;3641;49.082;8.200;2023-01-05T01:27:03;100744.16;;;9.29;100.00
7200;BME280;3641;49.082;8.200;2023-01-05T01:29:30;100750.28;;;9.31;100.00
7200;BME280;3641;49.082;8.200;2023-01-05T01:31:57;100760.47;;;9.20;100.00
7200;BME280;3641;49.082;8.200;2023-01-05T01:34:25;100755.72;;;9.22;100.00
7200;BME280;3641;49.082;8.200;2023-01-05T01:36:53;100759.44;;;9.21;100.00
7200;BME280;3641;49.082;8.200;2023-01-05T01:39:20;100756.06;;;9.27;100.00
7200;BME280;3641;49.082;8.200;2023-01-05T01:41:47;100767.28;;;9.24;100.00
7200;BME280;3641;49.082;8.200;2023-01-05T01:47:37;100746.00;;;9.20;100.00
7200;BME280;3641;49.082;8.200;2023-01-05T01:50:11;100737.66;;;9.21;100.00
7200;BME280;3641;49.082;8.200;2023-01-05T01:52:39;100739.72;;;9.27;100.00
7200;BME280;3641;49.082;8.200;2023-01-05T01:55:06;100741.06;;;9.32;100.00
7200;BME280;3641;49.082;8.200;2023-01-05T01:57:34;100746.88;;;9.29;100.00
7200;BME280;3641;49.082;8.200;2023-01-05T02:00:04;100750.13;;;9.32;100.00
7200;BME280;3641;49.082;8.200;2023-01-05T02:02:31;100742.13;;;9.31;100.00
7200;BME280;3641;49.082;8.200;2023-01-05T02:05:02;100741.78;;;9.34;100.00
7200;BME280;3641;49.082;8.200;2023-01-05T02:07:33;100740.06;;;9.33;100.00
7200;BME280;3641;49.082;8.200;2023-01-05T02:10:03;100756.06;;;9.36;100.00
7200;BME280;3641;49.082;8.200;2023-01-05T02:12:37;100747.22;;;9.34;100.00
7200;BME280;3641;49.082;8.200;2023-01-05T02:15:17;100740.25;;;9.39;100.00
7200;BME280;3641;49.082;8.200;2023-01-05T02:17:56;100737.84;;;9.36;100.00
7200;BME280;3641;49.082;8.200;2023-01-05T02:20:37;100748.94;;;9.43;100.00
7200;BME280;3641;49.082;8.200;2023-01-05T02:23:50;100739.56;;;9.54;100.00
7200;BME280;3641;49.082;8.200;2023-01-05T02:26:49;100750.97;;;9.49;100.00
7200;BME280;3641;49.082;8.200;2023-01-05T02:29:36;100749.97;;;9.50;100.00
7200;BME280;3641;49.082;8.200;2023-01-05T02:32:11;100752.38;;;9.53;100.00
7200;BME280;3641;49.082;8.200;2023-01-05T02:34:43;100759.88;;;9.59;100.00
7200;BME280;3641;49.082;8.200;2023-01-05T02:37:14;100755.59;;;9.57;100.00
7200;BME280;3641;49.082;8.200;2023-01-05T02:39:49;100752.19;;;9.55;100.00
7200;BME280;3641;49.082;8.200;2023-01-05T02:42:21;100756.63;;;9.56;100.00
7200;BME280;3641;49.082;8.200;2023-01-05T02:44:48;100765.66;;;9.64;100.00
7200;BME280;3641;49.082;8.200;2023-01-05T02:47:36;100742.84;;;9.66;100.00
7200;BME280;3641;49.082;8.200;2023-01-05T02:50:07;100760.38;;;9.71;100.00
7200;BME280;3641;49.082;8.200;2023-01-05T02:52:38;100747.44;;;9.73;100.00
7200;BME280;3641;49.082;8.200;2023-01-05T02:55:08;100744.88;;;9.72;100.00
7200;BME280;3641;49.082;8.200;2023-01-05T02:57:40;100748.63;;;9.79;100.00
7200;BME280;3641;49.082;8.200;2023-01-05T03:00:18;100759.19;;;9.82;100.00
7200;BME280;3641;49.082;8.200;2023-01-05T03:02:51;100757.13;;;9.84;100.00
7200;BME280;3641;49.082;8.200;2023-01-05T03:05:22;100745.72;;;9.89;100.00
7200;BME280;3641;49.082;8.200;2023-01-05T03:07:52;100758.69;;;9.87;100.00
7200;BME280;3641;49.082;8.200;2023-01-05T03:10:33;100747.94;;;9.85;100.00
7200;BME280;3641;49.082;8.200;2023-01-05T03:13:20;100750.00;;;9.83;100.00
7200;BME280;3641;49.082;8.200;2023-01-05T03:16:05;100759.03;;;9.84;100.00
7200;BME280;3641;49.082;8.200;2023-01-05T03:18:34;100752.72;;;9.83;100.00
7200;BME280;3641;49.082;8.200;2023-01-05T03:21:23;100767.72;;;9.87;100.00
7200;BME280;3641;49.082;8.200;2023-01-05T03:23:52;100759.03;;;9.84;100.00
7200;BME280;3641;49.082;8.200;2023-01-05T03:26:38;100773.16;;;9.87;100.00
7200;BME280;3641;49.082;8.200;2023-01-05T03:29:22;100765.69;;;9.89;100.00
7200;BME280;3641;49.082;8.200;2023-01-05T03:32:09;100780.84;;;9.92;100.00
7200;BME280;3641;49.082;8.200;2023-01-05T03:35:00;100775.53;;;9.90;100.00
7200;BME280;3641;49.082;8.200;2023-01-05T03:37:47;100769.91;;;9.92;100.00
7200;BME280;3641;49.082;8.200;2023-01-05T03:40:20;100767.53;;;9.89;100.00
7200;BME280;3641;49.082;8.200;2023-01-05T03:42:48;100764.13;;;9.87;100.00
7200;BME280;3641;49.082;8.200;2023-01-05T03:45:15;100766.69;;;9.88;100.00
7200;BME280;3641;49.082;8.200;2023-01-05T03:47:42;100755.97;;;9.87;100.00
7200;BME280;3641;49.082;8.200;2023-01-05T03:50:11;100754.25;;;9.86;100.00
7200;BME280;3641;49.082;8.200;2023-01-05T03:52:37;100751.69;;;9.84;100.00
7200;BME280;3641;49.082;8.200;2023-01-05T03:55:04;100750.16;;;9.81;100.00
7200;BME280;3641;49.082;8.200;2023-01-05T03:57:31;100758.34;;;9.90;100.00
7200;BME280;3641;49.082;8.200;2023-01-05T03:59:57;100760.41;;;9.88;100.00
7200;BME280;3641;49.082;8.200;2023-01-05T04:02:23;100770.25;;;9.89;100.00
7200;BME280;3641;49.082;8.200;2023-01-05T04:04:50;100756.81;;;9.87;100.00
7200;BME280;3641;49.082;8.200;2023-01-05T04:07:18;100759.53;;;9.87;100.00
7200;BME280;3641;49.082;8.200;2023-01-05T04:09:44;100763.63;;;9.91;100.00
7200;BME280;3641;49.082;8.200;2023-01-05T04:12:11;100762.09;;;9.89;100.00
7200;BME280;3641;49.082;8.200;2023-01-05T04:14:37;100772.81;;;9.90;100.00
7200;BME280;3641;49.082;8.200;2023-01-05T04:17:04;100770.97;;;9.91;100.00
7200;BME280;3641;49.082;8.200;2023-01-05T04:19:30;100778.63;;;9.87;100.00
7200;BME280;3641;49.082;8.200;2023-01-05T04:21:57;100785.63;;;9.90;100.00
7200;BME280;3641;49.082;8.200;2023-01-05T04:24:24;100786.78;;;9.95;100.00
7200;BME280;3641;49.082;8.200;2023-01-05T04:26:51;100788.69;;;9.87;100.00
7200;BME280;3641;49.082;8.200;2023-01-05T04:29:17;100798.25;;;9.91;100.00
7200;BME280;3641;49.082;8.200;2023-01-05T04:31:44;100793.63;;;9.91;100.00
7200;BME280;3641;49.082;8.200;2023-01-05T04:34:10;100813.38;;;9.93;100.00
7200;BME280;3641;49.082;8.200;2023-01-05T04:36:37;100808.94;;;9.92;100.00
7200;BME280;3641;49.082;8.200;2023-01-05T04:39:03;100833.50;;;9.92;100.00
7200;BME280;3641;49.082;8.200;2023-01-05T04:41:31;100821.41;;;9.95;100.00
7200;BME280;3641;49.082;8.200;2023-01-05T04:43:57;100839.97;;;9.91;100.00
7200;BME280;3641;49.082;8.200;2023-01-05T04:46:24;100841.34;;;9.95;100.00
7200;BME280;3641;49.082;8.200;2023-01-05T04:48:50;100843.72;;;9.98;100.00
7200;BME280;3641;49.082;8.200;2023-01-05T04:51:17;100832.47;;;9.85;100.00
7200;BME280;3641;49.082;8.200;2023-01-05T04:53:43;100831.81;;;9.91;100.00
7200;BME280;3641;49.082;8.200;2023-01-05T04:56:10;100846.44;;;9.98;100.00
7200;BME280;3641;49.082;8.200;2023-01-05T04:58:38;100845.94;;;9.95;100.00
7200;BME280;3641;49.082;8.200;2023-01-05T05:01:04;100855.31;;;9.92;100.00
7200;BME280;3641;49.082;8.200;2023-01-05T05:03:31;100852.94;;;9.89;100.00
7200;BME280;3641;49.082;8.200;2023-01-05T05:05:57;100850.56;;;9.94;100.00
7200;BME280;3641;49.082;8.200;2023-01-05T05:08:24;100859.41;;;9.88;100.00
7200;BME280;3641;49.082;8.200;2023-01-05T05:10:50;100853.78;;;9.90;100.00
7200;BME280;3641;49.082;8.200;2023-01-05T05:13:16;100859.06;;;9.91;100.00
7200;BME280;3641;49.082;8.200;2023-01-05T05:15:44;100856.00;;;9.94;100.00
7200;BME280;3641;49.082;8.200;2023-01-05T05:18:11;100862.47;;;9.93;100.00
7200;BME280;3641;49.082;8.200;2023-01-05T05:20:40;100860.25;;;9.97;100.00
7200;BME280;3641;49.082;8.200;2023-01-05T05:23:08;100861.47;;;9.94;100.00
7200;BME280;3641;49.082;8.200;2023-01-05T05:25:34;100867.59;;;9.88;100.00
7200;BME280;3641;49.082;8.200;2023-01-05T05:28:01;100873.56;;;9.92;100.00
7200;BME280;3641;49.082;8.200;2023-01-05T05:30:27;100867.25;;;9.91;100.00
7200;BME280;3641;49.082;8.200;2023-01-05T05:32:55;100867.91;;;9.77;100.00
7200;BME280;3641;49.082;8.200;2023-01-05T05:35:22;100878.09;;;9.67;100.00
7200;BME280;3641;49.082;8.200;2023-01-05T05:37:48;100877.28;;;9.82;100.00
7200;BME280;3641;49.082;8.200;2023-01-05T05:40:15;100889.91;;;9.92;100.00
7200;BME280;3641;49.082;8.200;2023-01-05T05:42:41;100901.00;;;9.90;100.00
7200;BME280;3641;49.082;8.200;2023-01-05T05:45:09;100890.75;;;9.84;100.00
7200;BME280;3641;49.082;8.200;2023-01-05T05:47:35;100888.34;;;9.73;100.00
7200;BME280;3641;49.082;8.200;2023-01-05T05:50:04;100886.47;;;9.73;100.00
7200;BME280;3641;49.082;8.200;2023-01-05T05:52:30;100894.13;;;9.78;100.00
7200;BME280;3641;49.082;8.200;2023-01-05T05:54:57;100909.16;;;9.82;100.00
7200;BME280;3641;49.082;8.200;2023-01-05T05:57:23;100901.63;;;9.68;100.00
7200;BME280;3641;49.082;8.200;2023-01-05T05:59:50;100904.38;;;9.84;100.00
7200;BME280;3641;49.082;8.200;2023-01-05T06:02:16;100912.72;;;9.82;100.00
7200;BME280;3641;49.082;8.200;2023-01-05T06:04:44;100919.19;;;9.73;100.00
7200;BME280;3641;49.082;8.200;2023-01-05T06:07:12;100929.94;;;9.75;100.00
7200;BME280;3641;49.082;8.200;2023-01-05T06:09:38;100931.13;;;9.72;100.00
7200;BME280;3641;49.082;8.200;2023-01-05T06:12:05;100928.03;;;9.67;100.00
7200;BME280;3641;49.082;8.200;2023-01-05T06:14:32;100927.53;;;9.72;100.00
7200;BME280;3641;49.082;8.200;2023-01-05T06:16:58;100932.66;;;9.75;100.00
7200;BME280;3641;49.082;8.200;2023-01-05T06:19:25;100944.09;;;9.78;100.00
7200;BME280;3641;49.082;8.200;2023-01-05T06:21:52;100944.75;;;9.80;100.00
7200;BME280;3641;49.082;8.200;2023-01-05T06:24:20;100941.72;;;9.84;100.00
7200;BME280;3641;49.082;8.200;2023-01-05T06:26:46;100941.66;;;9.67;100.00
7200;BME280;3641;49.082;8.200;2023-01-05T06:29:13;100941.19;;;9.72;100.00
7200;BME280;3641;49.082;8.200;2023-01-05T06:31:39;100938.63;;;9.78;100.00
7200;BME280;3641;49.082;8.200;2023-01-05T06:34:06;100937.44;;;9.81;100.00
7200;BME280;3641;49.082;8.200;2023-01-05T06:36:32;100945.44;;;9.82;100.00
7200;BME280;3641;49.082;8.200;2023-01-05T06:38:59;100957.38;;;9.81;100.00
7200;BME280;3641;49.082;8.200;2023-01-05T06:41:26;100955.34;;;9.84;100.00
7200;BME280;3641;49.082;8.200;2023-01-05T06:43:53;100953.28;;;9.77;100.00
7200;BME280;3641;49.082;8.200;2023-01-05T06:46:19;100951.22;;;9.79;100.00
7200;BME280;3641;49.082;8.200;2023-01-05T06:48:46;100956.16;;;9.76;100.00
7200;BME280;3641;49.082;8.200;2023-01-05T06:51:12;100955.66;;;9.80;100.00
7200;BME280;3641;49.082;8.200;2023-01-05T06:53:39;100946.66;;;9.80;100.00
7200;BME280;3641;49.082;8.200;2023-01-05T06:56:06;100940.53;;;9.86;99.95
7200;BME280;3641;49.082;8.200;2023-01-05T06:58:33;100943.03;;;9.71;99.36
7200;BME280;3641;49.082;8.200;2023-01-05T07:01:00;100936.56;;;9.72;98.45
7200;BME280;3641;49.082;8.200;2023-01-05T07:03:27;100951.56;;;9.76;98.24
7200;BME280;3641;49.082;8.200;2023-01-05T07:05:53;100965.19;;;9.76;95.05
7200;BME280;3641;49.082;8.200;2023-01-05T07:08:20;100974.25;;;9.77;94.15
7200;BME280;3641;49.082;8.200;2023-01-05T07:10:46;100970.63;;;9.76;94.64
7200;BME280;3641;49.082;8.200;2023-01-05T07:13:13;100968.94;;;9.75;93.67
7200;BME280;3641;49.082;8.200;2023-01-05T07:15:40;100965.06;;;9.86;93.34
7200;BME280;3641;49.082;8.200;2023-01-05T07:18:07;100964.69;;;9.81;90.56
7200;BME280;3641;49.082;8.200;2023-01-05T07:20:33;100970.31;;;9.79;91.84
7200;BME280;3641;49.082;8.200;2023-01-05T07:23:00;100966.75;;;9.79;91.24
7200;BME280;3641;49.082;8.200;2023-01-05T07:25:26;100971.03;;;9.81;91.59
7200;BME280;3641;49.082;8.200;2023-01-05T07:27:55;100973.91;;;9.80;89.69
7200;BME280;3641;49.082;8.200;2023-01-05T07:30:22;100960.97;;;9.82;91.32
7200;BME280;3641;49.082;8.200;2023-01-05T07:32:50;100970.31;;;9.79;90.09
7200;BME280;3641;49.082;8.200;2023-01-05T07:35:16;100966.75;;;9.79;88.76
7200;BME280;3641;49.082;8.200;2023-01-05T07:37:43;100964.53;;;9.82;89.99
7200;BME280;3641;49.082;8.200;2023-01-05T07:40:10;100967.09;;;9.84;91.00
7200;BME280;3641;49.082;8.200;2023-01-05T07:42:36;100969.63;;;9.77;88.49
7200;BME280;3641;49.082;8.200;2023-01-05T07:45:04;100969.31;;;9.80;87.94
7200;BME280;3641;49.082;8.200;2023-01-05T07:47:31;100972.88;;;9.81;87.72
7200;BME280;3641;49.082;8.200;2023-01-05T07:49:58;100985.81;;;9.79;86.71
7200;BME280;3641;49.082;8.200;2023-01-05T07:52:27;100987.75;;;9.87;87.58
7200;BME280;3641;49.082;8.200;2023-01-05T07:54:54;100983.28;;;9.86;87.17
7200;BME280;3641;49.082;8.200;2023-01-05T07:57:22;100993.03;;;9.88;86.61
7200;BME280;3641;49.082;8.200;2023-01-05T07:59:49;100986.00;;;9.86;87.87
7200;BME280;3641;49.082;8.200;2023-01-05T08:02:15;100985.34;;;9.84;86.92
7200;BME280;3641;49.082;8.200;2023-01-05T08:04:41;100990.63;;;9.85;87.27
7200;BME280;3641;49.082;8.200;2023-01-05T08:07:09;100989.94;;;9.83;87.20
7200;BME280;3641;49.082;8.200;2023-01-05T08:09:36;100995.41;;;9.83;87.32
7200;BME280;3641;49.082;8.200;2023-01-05T08:12:20;100993.69;;;9.90;86.50
7200;BME280;3641;49.082;8.200;2023-01-05T08:14:46;100993.19;;;9.87;86.91
7200;BME280;3641;49.082;8.200;2023-01-05T08:17:13;100995.06;;;9.86;85.46
7200;BME280;3641;49.082;8.200;2023-01-05T08:19:39;100993.03;;;9.88;87.09
7200;BME280;3641;49.082;8.200;2023-01-05T08:22:06;101004.44;;;9.84;85.43
7200;BME280;3641;49.082;8.200;2023-01-05T08:24:34;101014.84;;;9.88;86.69
7200;BME280;3641;49.082;8.200;2023-01-05T08:27:00;101018.75;;;9.94;88.66
7200;BME280;3641;49.082;8.200;2023-01-05T08:29:27;101025.41;;;9.83;88.08
7200;BME280;3641;49.082;8.200;2023-01-05T08:31:53;101032.38;;;9.86;89.35
7200;BME280;3641;49.082;8.200;2023-01-05T08:34:20;101035.28;;;9.92;89.77
7200;BME280;3641;49.082;8.200;2023-01-05T08:36:47;101044.50;;;9.91;90.87
7200;BME280;3641;49.082;8.200;2023-01-05T08:39:13;101047.91;;;9.93;91.66
7200;BME280;3641;49.082;8.200;2023-01-05T08:41:41;101043.44;;;9.84;91.30
7200;BME280;3641;49.082;8.200;2023-01-05T08:44:10;101045.16;;;9.85;89.69
7200;BME280;3641;49.082;8.200;2023-01-05T08:46:37;101047.72;;;9.87;90.78
7200;BME280;3641;49.082;8.200;2023-01-05T08:49:05;101053.53;;;9.92;91.14
7200;BME280;3641;49.082;8.200;2023-01-05T08:51:31;101060.19;;;9.89;90.82
7200;BME280;3641;49.082;8.200;2023-01-05T08:53:58;101066.50;;;9.90;90.28
7200;BME280;3641;49.082;8.200;2023-01-05T08:56:25;101070.06;;;9.90;90.11
7200;BME280;3641;49.082;8.200;2023-01-05T08:58:53;101064.13;;;9.95;90.37
7200;BME280;3641;49.082;8.200;2023-01-05T09:01:21;101063.44;;;9.93;90.62
7200;BME280;3641;49.082;8.200;2023-01-05T09:03:48;101068.56;;;9.96;91.15
7200;BME280;3641;49.082;8.200;2023-01-05T09:06:15;101065.28;;;9.92;91.41
7200;BME280;3641;49.082;8.200;2023-01-05T09:08:42;101076.19;;;9.92;90.47
7200;BME280;3641;49.082;8.200;2023-01-05T09:11:11;101075.88;;;9.95;90.12
7200;BME280;3641;49.082;8.200;2023-01-05T09:13:39;101081.66;;;9.92;88.70
7200;BME280;3641;49.082;8.200;2023-01-05T09:16:09;101089.16;;;9.90;89.01
7200;BME280;3641;49.082;8.200;2023-01-05T09:18:37;101092.41;;;9.94;90.11
7200;BME280;3641;49.082;8.200;2023-01-05T09:21:04;101088.16;;;9.91;90.13
7200;BME280;3641;49.082;8.200;2023-01-05T09:23:31;101097.38;;;9.98;90.97
7200;BME280;3641;49.082;8.200;2023-01-05T09:25:58;101090.88;;;9.91;89.93
7200;BME280;3641;49.082;8.200;2023-01-05T09:28:24;101099.69;;;9.85;89.45
7200;BME280;3641;49.082;8.200;2023-01-05T09:30:51;101100.41;;;9.95;90.28
7200;BME280;3641;49.082;8.200;2023-01-05T09:33:18;101105.69;;;9.89;89.82
7200;BME280;3641;49.082;8.200;2023-01-05T09:35:52;101100.38;;;9.87;89.97
7200;BME280;3641;49.082;8.200;2023-01-05T09:38:18;101103.47;;;9.92;90.68
7200;BME280;3641;49.082;8.200;2023-01-05T09:40:45;101097.00;;;9.93;90.87
7200;BME280;3641;49.082;8.200;2023-01-05T09:43:21;101099.41;;;9.96;90.17
7200;BME280;3641;49.082;8.200;2023-01-05T09:45:49;101111.34;;;9.95;89.03
7200;BME280;3641;49.082;8.200;2023-01-05T09:48:16;101108.84;;;10.02;89.68
7200;BME280;3641;49.082;8.200;2023-01-05T09:50:46;101118.50;;;9.96;88.74
7200;BME280;3641;49.082;8.200;2023-01-05T09:53:14;101111.16;;;9.97;89.17
7200;BME280;3641;49.082;8.200;2023-01-05T09:55:42;101118.50;;;9.96;88.95
7200;BME280;3641;49.082;8.200;2023-01-05T09:58:13;101123.16;;;10.04;89.42
7200;BME280;3641;49.082;8.200;2023-01-05T10:00:43;101119.06;;;10.08;89.45
7200;BME280;3641;49.082;8.200;2023-01-05T10:03:17;101113.28;;;10.11;89.88
7200;BME280;3641;49.082;8.200;2023-01-05T10:05:47;101115.50;;;10.08;88.84
7200;BME280;3641;49.082;8.200;2023-01-05T10:08:17;101118.56;;;10.13;89.54
7200;BME280;3641;49.082;8.200;2023-01-05T10:10:47;101118.75;;;10.11;88.66
7200;BME280;3641;49.082;8.200;2023-01-05T10:13:36;101111.63;;;10.18;88.76
7200;BME280;3641;49.082;8.200;2023-01-05T10:16:04;101112.78;;;10.16;88.87
7200;BME280;3641;49.082;8.200;2023-01-05T10:18:30;101113.19;;;10.21;89.93
7200;BME280;3641;49.082;8.200;2023-01-05T10:21:06;101101.56;;;10.19;88.99
7200;BME280;3641;49.082;8.200;2023-01-05T10:23:51;101100.56;;;10.20;88.32
7200;BME280;3641;49.082;8.200;2023-01-05T10:26:24;101101.56;;;10.19;87.51
7200;BME280;3641;49.082;8.200;2023-01-05T10:28:56;101092.72;;;10.25;88.13
7200;BME280;3641;49.082;8.200;2023-01-05T10:31:39;101102.78;;;10.25;88.42
7200;BME280;3641;49.082;8.200;2023-01-05T10:34:18;101092.72;;;10.25;87.74
7200;BME280;3641;49.082;8.200;2023-01-05T10:37:07;101079.25;;;10.24;86.84
7200;BME280;3641;49.082;8.200;2023-01-05T10:39:50;101084.53;;;10.25;88.14
7200;BME280;3641;49.082;8.200;2023-01-05T10:42:26;101089.31;;;10.23;86.68
7200;BME280;3641;49.082;8.200;2023-01-05T10:44:58;101090.66;;;10.27;86.80
7200;BME280;3641;49.082;8.200;2023-01-05T10:47:28;101096.84;;;10.29;85.65
7200;BME280;3641;49.082;8.200;2023-01-05T10:49:55;101095.19;;;10.36;84.29
7200;BME280;3641;49.082;8.200;2023-01-05T10:52:25;101095.50;;;10.33;85.12
7200;BME280;3641;49.082;8.200;2023-01-05T10:54:56;101096.72;;;10.39;84.72
7200;BME280;3641;49.082;8.200;2023-01-05T10:57:39;101093.50;;;10.44;86.09
7200;BME280;3641;49.082;8.200;2023-01-05T11:00:13;101100.50;;;10.46;85.93
7200;BME280;3641;49.082;8.200;2023-01-05T11:02:41;101101.03;;;10.50;86.11
7200;BME280;3641;49.082;8.200;2023-01-05T11:05:33;101104.97;;;10.56;87.80
7200;BME280;3641;49.082;8.200;2023-01-05T11:08:05;101108.38;;;10.58;87.51
7200;BME280;3641;49.082;8.200;2023-01-05T11:10:34;101103.94;;;10.57;86.18
7200;BME280;3641;49.082;8.200;2023-01-05T11:13:03;101104.47;;;10.68;84.65
7200;BME280;3641;49.082;8.200;2023-01-05T11:15:32;101101.75;;;10.68;85.47
7200;BME280;3641;49.082;8.200;2023-01-05T11:18:01;101089.66;;;10.79;85.45
7200;BME280;3641;49.082;8.200;2023-01-05T11:20:28;101093.41;;;10.78;84.90
7200;BME280;3641;49.082;8.200;2023-01-05T11:22:54;101094.78;;;10.90;84.18
7200;BME280;3641;49.082;8.200;2023-01-05T11:25:30;101091.03;;;10.92;85.29
7200;BME280;3641;49.082;8.200;2023-01-05T11:28:05;101094.44;;;10.94;84.99
7200;BME280;3641;49.082;8.200;2023-01-05T11:30:32;101102.81;;;11.00;83.24
7200;BME280;3641;49.082;8.200;2023-01-05T11:32:59;101096.69;;;11.06;85.22
7200;BME280;3641;49.082;8.200;2023-01-05T11:35:29;101098.41;;;11.07;82.18
7200;BME280;3641;49.082;8.200;2023-01-05T11:37:57;101092.38;;;11.04;83.10
7200;BME280;3641;49.082;8.200;2023-01-05T11:40:30;101092.38;;;11.04;84.10
7200;BME280;3641;49.082;8.200;2023-01-05T11:42:58;101096.84;;;10.97;81.89
7200;BME280;3641;49.082;8.200;2023-01-05T11:45:26;101092.38;;;10.96;84.11
7200;BME280;3641;49.082;8.200;2023-01-05T11:47:54;101080.44;;;10.97;82.59
7200;BME280;3641;49.082;8.200;2023-01-05T11:50:23;101087.97;;;11.03;82.66
7200;BME280;3641;49.082;8.200;2023-01-05T11:52:51;101093.59;;;11.01;81.28
7200;BME280;3641;49.082;8.200;2023-01-05T11:55:30;101088.66;;;10.97;81.59
7200;BME280;3641;49.082;8.200;2023-01-05T11:58:11;101085.06;;;10.96;80.55
7200;BME280;3641;49.082;8.200;2023-01-05T12:03:49;101083.00;;;10.98;82.23
7200;BME280;3641;49.082;8.200;2023-01-05T12:06:30;101087.63;;;10.98;79.16
7200;BME280;3641;49.082;8.200;2023-01-05T12:09:04;101092.22;;;10.97;79.37
7200;BME280;3641;49.082;8.200;2023-01-05T12:11:47;101092.22;;;10.97;80.97
7200;BME280;3641;49.082;8.200;2023-01-05T12:14:30;101093.59;;;10.93;80.38
7200;BME280;3641;49.082;8.200;2023-01-05T12:17:05;101092.56;;;10.94;82.58
7200;BME280;3641;49.082;8.200;2023-01-05T12:19:52;101088.97;;;10.94;81.65
7200;BME280;3641;49.082;8.200;2023-01-05T12:22:38;101088.31;;;11.00;82.79
7200;BME280;3641;49.082;8.200;2023-01-05T12:25:18;101086.94;;;11.04;81.98
7200;BME280;3641;49.082;8.200;2023-01-05T12:28:05;101096.50;;;11.08;80.72
7200;BME280;3641;49.082;8.200;2023-01-05T12:30:38;101097.19;;;11.10;81.47
7200;BME280;3641;49.082;8.200;2023-01-05T12:36:23;101099.91;;;11.10;82.24
7200;BME280;3641;49.082;8.200;2023-01-05T12:39:13;101100.97;;;11.09;80.65
7200;BME280;3641;49.082;8.200;2023-01-05T12:42:04;101104.19;;;11.04;79.28
7200;BME280;3641;49.082;8.200;2023-01-05T12:45:01;101104.19;;;11.04;77.85
7200;BME280;3641;49.082;8.200;2023-01-05T12:47:48;101098.41;;;11.07;77.77
7200;BME280;3641;49.082;8.200;2023-01-05T12:50:24;101101.47;;;11.13;78.03
7200;BME280;3641;49.082;8.200;2023-01-05T12:52:56;101099.75;;;11.12;80.01
7200;BME280;3641;49.082;8.200;2023-01-05T12:55:28;101106.59;;;11.07;77.46
7200;BME280;3641;49.082;8.200;2023-01-05T12:57:59;101112.06;;;11.07;79.46
7200;BME280;3641;49.082;8.200;2023-01-05T13:00:33;101104.38;;;11.11;77.16
7200;BME280;3641;49.082;8.200;2023-01-05T13:03:01;101103.19;;;11.14;76.69
7200;BME280;3641;49.082;8.200;2023-01-05T13:05:31;101106.59;;;11.16;77.45
7200;BME280;3641;49.082;8.200;2023-01-05T13:08:04;101099.91;;;11.10;77.18
7200;BME280;3641;49.082;8.200;2023-01-05T13:10:38;101102.81;;;11.08;78.09
7200;BME280;3641;49.082;8.200;2023-01-05T13:13:11;101107.59;;;11.06;76.00
7200;BME280;3641;49.082;8.200;2023-01-05T13:15:42;101109.31;;;11.07;75.87
7200;BME280;3641;49.082;8.200;2023-01-05T13:18:13;101116.13;;;11.12;78.05
7200;BME280;3641;49.082;8.200;2023-01-05T13:20:43;101111.34;;;11.05;78.92
7200;BME280;3641;49.082;8.200;2023-01-05T13:23:15;101118.69;;;11.05;80.06
7200;BME280;3641;49.082;8.200;2023-01-05T13:25:49;101114.78;;;10.99;77.36
7200;BME280;3641;49.082;8.200;2023-01-05T13:28:18;101113.06;;;11.06;79.84
7200;BME280;3641;49.082;8.200;2023-01-05T13:31:15;101114.59;;;11.01;79.12
7200;BME280;3641;49.082;8.200;2023-01-05T13:34:07;101106.94;;;10.96;79.11
7200;BME280;3641;49.082;8.200;2023-01-05T13:36:50;101113.56;;;10.94;79.64
7200;BME280;3641;49.082;8.200;2023-01-05T13:39:38;101109.13;;;10.93;79.30
7200;BME280;3641;49.082;8.200;2023-01-05T13:42:39;101111.50;;;10.87;79.82